Terminal Aerodrome Forecast
Issued by NWS

Home | Current Version | Previous Version | Text Only | Print | Product List | Glossary On
Versions: 1 2 3 4 5 6 7 8 9 10 11 12 13 14 15 16 17 18
000
FTUS45 KRIW 181100
TAFBPI
TAF
KBPI 181136Z 1812/1912 VRB06KT P6SM FEW090 SCT200
     FM181600 35012KT P6SM SCT080
     FM182100 34015KT P6SM VCSH SCT050 BKN080
     FM190400 VRB06KT P6SM VCSH BKN050=

USA.gov is the U.S. government's official web portal to all federal, state and local government web resources and services.